createdAt,value
2023-02-04T00:01:16.641Z,3.43
2023-02-04T00:03:44.674Z,2.37
2023-02-04T00:06:12.721Z,4.17
2023-02-04T00:08:44.054Z,2.57
2023-02-04T00:11:13.477Z,3.50
2023-02-04T00:13:41.485Z,2.83
2023-02-04T00:16:09.567Z,3.33
2023-02-04T00:18:37.706Z,3.13
2023-02-04T00:21:06.120Z,3.07
2023-02-04T00:23:34.173Z,3.67
2023-02-04T00:26:02.240Z,3.00
2023-02-04T00:28:31.666Z,2.73
2023-02-04T00:30:59.747Z,2.70
2023-02-04T00:33:28.006Z,3.03
2023-02-04T00:35:56.312Z,3.50
2023-02-04T00:38:24.364Z,2.90
2023-02-04T00:40:52.373Z,2.53
2023-02-04T00:43:20.461Z,3.07
2023-02-04T00:45:49.949Z,2.80
2023-02-04T00:48:18.048Z,3.10
2023-02-04T00:50:46.078Z,3.10
2023-02-04T00:53:14.086Z,3.00
2023-02-04T00:55:42.182Z,3.90
2023-02-04T00:58:10.405Z,3.13
2023-02-04T01:00:38.446Z,3.50
2023-02-04T01:03:07.924Z,2.90
2023-02-04T01:05:35.969Z,4.17
2023-02-04T01:08:04.052Z,3.87
2023-02-04T01:10:32.563Z,3.47
2023-02-04T01:13:01.063Z,3.20
2023-02-04T01:15:29.079Z,3.40
2023-02-04T01:17:57.152Z,3.43
2023-02-04T01:20:26.549Z,3.23
2023-02-04T01:22:54.653Z,2.53
2023-02-04T01:25:22.696Z,3.67
2023-02-04T01:27:50.787Z,3.10
2023-02-04T01:30:19.046Z,2.90
2023-02-04T01:32:47.129Z,3.20
2023-02-04T01:35:15.186Z,3.57
2023-02-04T01:37:44.613Z,3.93
2023-02-04T01:40:13.590Z,2.60
2023-02-04T01:42:41.648Z,2.73
2023-02-04T01:45:10.618Z,3.00
2023-02-04T01:47:38.704Z,3.27
2023-02-04T01:50:07.642Z,3.00
2023-02-04T01:52:37.016Z,2.70
2023-02-04T01:55:08.133Z,2.87
2023-02-04T01:57:36.151Z,3.20
2023-02-04T02:00:04.244Z,3.80
2023-02-04T02:02:40.134Z,2.57
2023-02-04T02:05:08.586Z,2.93
2023-02-04T02:07:38.197Z,3.90
2023-02-04T02:10:08.592Z,3.27
2023-02-04T02:12:36.626Z,3.40
2023-02-04T02:15:04.846Z,2.83
2023-02-04T02:17:33.517Z,2.77
2023-02-04T02:20:01.595Z,3.50
2023-02-04T02:22:30.949Z,3.43
2023-02-04T02:25:00.365Z,3.50
2023-02-04T02:27:28.437Z,3.40
2023-02-04T02:29:56.520Z,3.00
2023-02-04T02:32:24.914Z,3.13
2023-02-04T02:34:56.165Z,3.03
2023-02-04T02:37:24.210Z,3.50
2023-02-04T02:39:52.240Z,3.70
2023-02-04T02:42:21.655Z,2.33
2023-02-04T02:44:49.681Z,3.20
2023-02-04T02:47:18.487Z,3.77
2023-02-04T02:49:46.584Z,3.40
2023-02-04T02:52:14.755Z,3.47
2023-02-04T02:54:43.109Z,3.23
2023-02-04T02:57:14.924Z,3.07
2023-02-04T02:59:44.401Z,3.30
2023-02-04T03:02:13.178Z,3.50
2023-02-04T03:04:42.469Z,3.10
2023-02-04T03:07:10.483Z,3.20
2023-02-04T03:09:38.532Z,2.60
2023-02-04T03:12:06.819Z,2.53
2023-02-04T03:14:35.026Z,3.00
2023-02-04T03:17:04.441Z,3.47
2023-02-04T03:19:38.376Z,2.73
2023-02-04T03:22:06.582Z,2.93
2023-02-04T03:24:34.704Z,2.93
2023-02-04T03:27:02.775Z,3.10
2023-02-04T03:29:30.807Z,2.10
2023-02-04T03:32:00.065Z,3.30
2023-02-04T03:34:29.699Z,2.90
2023-02-04T03:36:57.801Z,2.80
2023-02-04T03:39:25.858Z,3.07
2023-02-04T03:41:53.883Z,3.20
2023-02-04T03:44:22.494Z,3.70
2023-02-04T03:46:52.792Z,2.73
2023-02-04T03:49:20.869Z,3.67
2023-02-04T03:51:50.373Z,2.80
2023-02-04T03:54:18.479Z,3.10
2023-02-04T03:56:46.504Z,3.27
2023-02-04T03:59:14.568Z,3.10
2023-02-04T04:01:42.637Z,2.60
2023-02-04T04:04:10.734Z,2.73
2023-02-04T04:06:38.831Z,2.70
2023-02-04T04:09:08.265Z,3.00
2023-02-04T04:11:36.294Z,3.43
2023-02-04T04:14:04.347Z,2.83
2023-02-04T04:16:32.469Z,2.53
2023-02-04T04:19:00.511Z,3.47
2023-02-04T04:21:28.552Z,3.20
2023-02-04T04:24:02.265Z,2.70
2023-02-04T04:26:31.679Z,3.40
2023-02-04T04:28:59.724Z,2.63
2023-02-04T04:31:27.867Z,3.47
2023-02-04T04:33:55.937Z,2.70
2023-02-04T04:36:23.992Z,3.47
2023-02-04T04:38:52.028Z,2.63
2023-02-04T04:41:20.136Z,3.00
2023-02-04T04:43:49.561Z,3.57
2023-02-04T04:46:17.635Z,3.20
2023-02-04T04:48:45.749Z,2.73
2023-02-04T04:51:13.802Z,3.33
2023-02-04T04:53:41.880Z,3.07
2023-02-04T04:56:09.972Z,2.60
2023-02-04T04:58:38.007Z,3.57
2023-02-04T05:01:07.526Z,2.93
2023-02-04T05:03:35.614Z,3.90
2023-02-04T05:06:03.653Z,3.00
2023-02-04T05:08:31.687Z,2.30
2023-02-04T05:10:59.724Z,3.30
2023-02-04T05:13:27.770Z,2.83
2023-02-04T05:15:55.871Z,2.80
2023-02-04T05:18:25.477Z,2.53
2023-02-04T05:20:53.512Z,2.23
2023-02-04T05:23:21.561Z,2.90
2023-02-04T05:25:49.614Z,2.67
2023-02-04T05:28:17.722Z,2.93
2023-02-04T05:30:45.939Z,3.93
2023-02-04T05:33:14.014Z,2.70
2023-02-04T05:35:43.439Z,3.17
2023-02-04T05:38:11.485Z,2.20
2023-02-04T05:40:39.564Z,2.63
2023-02-04T05:43:07.641Z,3.10
2023-02-04T05:45:35.721Z,2.67
2023-02-04T05:48:03.865Z,3.40
2023-02-04T05:50:32.203Z,3.20
2023-02-04T05:53:01.788Z,2.87
2023-02-04T05:55:29.828Z,2.70
2023-02-04T05:57:57.852Z,3.40
2023-02-04T06:00:25.987Z,2.50
2023-02-04T06:02:54.069Z,3.93
2023-02-04T06:05:23.199Z,4.03
2023-02-04T06:07:51.237Z,4.63
2023-02-04T06:10:22.000Z,2.80
2023-02-04T06:12:50.083Z,2.90
2023-02-04T06:15:18.370Z,2.30
2023-02-04T06:17:46.420Z,2.83
2023-02-04T06:20:15.061Z,4.20
2023-02-04T06:22:44.345Z,2.47
2023-02-04T06:25:12.377Z,2.77
2023-02-04T06:27:41.788Z,2.37
2023-02-04T06:30:11.384Z,2.77
2023-02-04T06:32:39.398Z,3.17
2023-02-04T06:35:08.075Z,3.70
2023-02-04T06:37:36.114Z,3.20
2023-02-04T06:40:05.176Z,2.73
2023-02-04T06:42:33.200Z,2.77
2023-02-04T06:45:02.665Z,3.20
2023-02-04T06:47:30.752Z,2.80
2023-02-04T06:49:58.792Z,2.70
2023-02-04T06:52:32.384Z,3.33
2023-02-04T06:55:00.506Z,3.80
2023-02-04T06:57:28.550Z,2.60
2023-02-04T06:59:56.584Z,3.00
2023-02-04T07:02:26.067Z,2.97
2023-02-04T07:04:54.131Z,3.20
2023-02-04T07:07:22.192Z,2.20
2023-02-04T07:09:50.233Z,2.80
2023-02-04T07:12:18.290Z,2.57
2023-02-04T07:14:46.291Z,2.83
2023-02-04T07:17:14.299Z,2.27
2023-02-04T07:19:43.706Z,2.70
2023-02-04T07:22:11.740Z,2.50
2023-02-04T07:24:44.395Z,2.47
2023-02-04T07:27:12.434Z,2.97
2023-02-04T07:29:40.486Z,2.97
2023-02-04T07:32:08.606Z,2.50
2023-02-04T07:34:36.687Z,3.20
2023-02-04T07:37:06.140Z,3.13
2023-02-04T07:39:34.246Z,2.30
2023-02-04T07:42:02.359Z,2.60
2023-02-04T07:44:30.392Z,3.23
2023-02-04T07:46:58.449Z,2.97
2023-02-04T07:49:26.784Z,3.60
2023-02-04T07:51:54.866Z,4.07
2023-02-04T07:54:24.321Z,3.43
2023-02-04T07:56:52.341Z,2.80
2023-02-04T07:59:20.387Z,2.70
2023-02-04T08:01:49.934Z,3.97
2023-02-04T08:04:18.034Z,3.67
2023-02-04T08:06:46.107Z,3.00
2023-02-04T08:09:14.472Z,3.90
2023-02-04T08:11:43.884Z,3.40
2023-02-04T08:14:14.490Z,2.97
2023-02-04T08:16:42.576Z,3.07
2023-02-04T08:19:10.563Z,4.03
2023-02-04T08:21:38.629Z,3.30
2023-02-04T08:24:07.101Z,4.20
2023-02-04T08:26:35.154Z,3.80
2023-02-04T08:29:04.532Z,2.80
2023-02-04T08:31:32.710Z,3.50
2023-02-04T08:34:00.825Z,3.37
2023-02-04T08:36:28.869Z,3.27
2023-02-04T08:38:56.921Z,3.47
2023-02-04T08:41:25.035Z,3.50
2023-02-04T08:44:03.832Z,3.60
2023-02-04T08:46:31.917Z,3.17
2023-02-04T08:48:59.942Z,3.33
2023-02-04T08:51:28.007Z,3.10
2023-02-04T08:53:56.058Z,3.27
2023-02-04T08:56:24.128Z,3.20
2023-02-04T08:58:52.967Z,3.43
2023-02-04T09:01:22.445Z,4.00
2023-02-04T09:03:50.564Z,3.20
2023-02-04T09:06:18.681Z,3.03
2023-02-04T09:08:50.504Z,3.20
2023-02-04T09:11:18.563Z,2.43
2023-02-04T09:13:46.637Z,3.40
2023-02-04T09:16:14.742Z,3.13
2023-02-04T09:18:44.181Z,3.13
2023-02-04T09:21:12.207Z,3.07
2023-02-04T09:23:40.223Z,3.90
2023-02-04T09:26:08.342Z,3.33
2023-02-04T09:28:36.439Z,4.00
2023-02-04T09:31:06.420Z,3.53
2023-02-04T09:33:34.566Z,3.03
2023-02-04T09:36:04.020Z,3.43
2023-02-04T09:38:32.095Z,3.67
2023-02-04T09:41:02.506Z,3.20
2023-02-04T09:43:31.835Z,3.00
2023-02-04T09:45:59.932Z,3.37
2023-02-04T09:48:27.998Z,3.53
2023-02-04T09:51:08.905Z,3.67
2023-02-04T09:53:37.001Z,2.93
2023-02-04T09:56:05.563Z,3.53
2023-02-04T09:58:35.421Z,3.07
2023-02-04T10:01:07.167Z,3.10
2023-02-04T10:03:35.766Z,3.27
2023-02-04T10:06:03.924Z,2.80
2023-02-04T10:08:34.220Z,3.20
2023-02-04T10:11:02.331Z,3.63
2023-02-04T10:13:32.668Z,3.40
2023-02-04T10:16:00.800Z,2.43
2023-02-04T10:18:31.520Z,3.20
2023-02-04T10:21:02.067Z,3.13
2023-02-04T10:23:30.117Z,4.03
2023-02-04T10:25:59.579Z,3.77
2023-02-04T10:28:34.819Z,3.10
2023-02-04T10:31:02.984Z,3.33
2023-02-04T10:33:31.968Z,2.77
2023-02-04T10:36:00.046Z,3.33
2023-02-04T10:38:28.087Z,3.47
2023-02-04T10:41:04.058Z,3.03
2023-02-04T10:43:32.105Z,3.47
2023-02-04T10:46:00.984Z,3.43
2023-02-04T10:48:30.348Z,2.90
2023-02-04T10:50:58.680Z,3.67
2023-02-04T10:53:44.255Z,3.83
2023-02-04T10:56:15.819Z,3.63
2023-02-04T10:58:43.923Z,2.87
2023-02-04T11:01:12.606Z,3.30
2023-02-04T11:03:41.209Z,3.00
2023-02-04T11:06:12.373Z,3.80
2023-02-04T11:08:40.549Z,3.37
2023-02-04T11:11:09.424Z,2.93
2023-02-04T11:13:43.073Z,3.33
2023-02-04T11:16:13.685Z,3.00
2023-02-04T11:18:46.570Z,3.23
2023-02-04T11:21:24.220Z,2.93
2023-02-04T11:23:52.503Z,3.70
2023-02-04T11:26:22.894Z,3.10
2023-02-04T11:29:10.418Z,3.53
2023-02-04T11:31:45.753Z,3.33
2023-02-04T11:34:29.922Z,3.80
2023-02-04T11:37:05.540Z,3.40
2023-02-04T11:39:35.626Z,3.47
2023-02-04T11:42:03.716Z,3.50
2023-02-04T11:44:33.194Z,3.60
2023-02-04T11:47:01.751Z,3.47
2023-02-04T11:49:29.821Z,3.30
2023-02-04T11:52:08.888Z,3.50
2023-02-04T11:54:37.142Z,4.30
2023-02-04T11:57:05.565Z,3.37
2023-02-04T11:59:34.989Z,3.70
2023-02-04T12:02:07.181Z,2.93
2023-02-04T12:04:35.251Z,3.63
2023-02-04T12:07:03.989Z,3.43
2023-02-04T12:09:32.347Z,3.80
2023-02-04T12:12:01.331Z,3.07
2023-02-04T12:14:30.287Z,3.70
2023-02-04T12:16:59.775Z,3.60
2023-02-04T12:19:27.890Z,3.50
2023-02-04T12:21:55.964Z,4.07
2023-02-04T12:24:24.032Z,3.87
2023-02-04T12:26:52.316Z,3.60
2023-02-04T12:29:20.368Z,3.50
2023-02-04T12:31:48.579Z,3.80
2023-02-04T12:34:18.289Z,4.43
2023-02-04T12:36:46.322Z,4.50
2023-02-04T12:39:14.377Z,4.10
2023-02-04T12:41:42.488Z,4.20
2023-02-04T12:44:10.552Z,4.60
2023-02-04T12:46:38.705Z,4.17
2023-02-04T12:49:08.844Z,4.00
2023-02-04T12:51:39.064Z,4.40
2023-02-04T12:54:08.710Z,4.10
2023-02-04T12:56:36.742Z,4.17
2023-02-04T12:59:05.728Z,4.17
2023-02-04T13:01:34.046Z,4.30
2023-02-04T13:04:02.101Z,4.60
2023-02-04T13:06:30.585Z,4.43
2023-02-04T13:08:59.988Z,4.63
2023-02-04T13:11:28.024Z,4.23
2023-02-04T13:13:56.047Z,4.10
2023-02-04T13:16:24.827Z,4.27
2023-02-04T13:18:52.921Z,4.37
2023-02-04T13:21:20.964Z,4.37
2023-02-04T13:23:49.111Z,5.20
2023-02-04T13:26:18.518Z,5.00
2023-02-04T13:28:46.561Z,5.00
2023-02-04T13:31:14.680Z,4.67
2023-02-04T13:33:42.754Z,4.03
2023-02-04T13:36:10.926Z,4.40
2023-02-04T13:38:38.967Z,5.00
2023-02-04T13:41:07.019Z,4.40
2023-02-04T13:43:36.735Z,3.87
2023-02-04T13:46:06.368Z,5.13
2023-02-04T13:48:36.564Z,4.93
2023-02-04T13:51:04.977Z,5.13
2023-02-04T13:53:33.006Z,4.30
2023-02-04T13:56:01.491Z,4.23
2023-02-04T13:58:29.500Z,4.70
2023-02-04T14:00:59.065Z,4.73
2023-02-04T14:03:27.315Z,5.87
2023-02-04T14:05:55.610Z,5.00
2023-02-04T14:08:23.717Z,4.80
2023-02-04T14:10:51.774Z,4.50
2023-02-04T14:13:19.793Z,4.67
2023-02-04T14:15:47.831Z,4.63
2023-02-04T14:18:17.475Z,5.00
2023-02-04T14:20:45.509Z,5.00
2023-02-04T14:23:14.033Z,4.63
2023-02-04T14:25:42.135Z,5.03
2023-02-04T14:28:10.448Z,4.63
2023-02-04T14:30:38.796Z,4.80
2023-02-04T14:33:08.943Z,4.80
2023-02-04T14:35:38.670Z,4.87
2023-02-04T14:38:07.010Z,4.37
2023-02-04T14:40:35.277Z,4.17
2023-02-04T14:43:03.427Z,5.30
2023-02-04T14:45:31.481Z,5.20
2023-02-04T14:48:01.385Z,3.83
2023-02-04T14:50:30.681Z,5.23
2023-02-04T14:53:00.212Z,4.87
2023-02-04T14:55:28.340Z,4.07
2023-02-04T14:57:56.350Z,5.50
2023-02-04T15:00:24.713Z,4.50
2023-02-04T15:02:52.887Z,5.37
2023-02-04T15:05:20.953Z,4.50
2023-02-04T15:07:49.036Z,4.87
2023-02-04T15:10:18.588Z,4.97
2023-02-04T15:12:46.793Z,4.60
2023-02-04T15:15:14.880Z,5.10
2023-02-04T15:17:42.894Z,4.67
2023-02-04T15:20:12.479Z,5.10
2023-02-04T15:22:44.843Z,4.90
2023-02-04T15:25:14.058Z,4.37
2023-02-04T15:27:43.461Z,5.07
2023-02-04T15:30:12.225Z,5.00
2023-02-04T15:32:46.072Z,5.17
2023-02-04T15:35:14.229Z,5.67
2023-02-04T15:37:44.838Z,4.87
2023-02-04T15:40:13.282Z,4.73
2023-02-04T15:42:41.337Z,5.47
2023-02-04T15:45:16.601Z,5.10
2023-02-04T15:47:44.630Z,5.07
2023-02-04T15:50:15.353Z,5.47
2023-02-04T15:52:43.421Z,4.90
2023-02-04T15:55:11.517Z,3.90
2023-02-04T15:57:39.632Z,4.87
2023-02-04T16:00:08.830Z,4.70
2023-02-04T16:02:38.265Z,5.40
2023-02-04T16:05:07.321Z,4.93
2023-02-04T16:07:35.391Z,4.83
2023-02-04T16:10:03.485Z,5.00
2023-02-04T16:12:31.607Z,4.67
2023-02-04T16:14:59.636Z,4.73
2023-02-04T16:17:27.692Z,4.50
2023-02-04T16:19:58.087Z,4.97
2023-02-04T16:22:26.210Z,4.50
2023-02-04T16:24:55.088Z,4.73
2023-02-04T16:27:23.145Z,4.43
2023-02-04T16:29:51.179Z,4.40
2023-02-04T16:32:21.043Z,4.60
2023-02-04T16:34:49.074Z,4.40
2023-02-04T16:37:18.492Z,4.33
2023-02-04T16:39:46.883Z,4.90
2023-02-04T16:42:14.905Z,5.27
2023-02-04T16:44:44.859Z,4.90
2023-02-04T16:47:12.891Z,4.83
2023-02-04T16:49:45.966Z,4.00
2023-02-04T16:52:13.998Z,4.30
2023-02-04T16:54:44.140Z,4.80
2023-02-04T16:57:12.388Z,4.53
2023-02-04T16:59:44.872Z,4.60
2023-02-04T17:02:12.964Z,4.77
2023-02-04T17:04:40.978Z,4.50
2023-02-04T17:07:09.220Z,4.47
2023-02-04T17:09:37.265Z,4.27
2023-02-04T17:12:10.464Z,4.60
2023-02-04T17:14:38.982Z,4.93
2023-02-04T17:17:07.362Z,4.20
2023-02-04T17:19:35.512Z,4.80
2023-02-04T17:22:03.557Z,4.10
2023-02-04T17:24:31.602Z,4.13
2023-02-04T17:27:00.649Z,4.10
2023-02-04T17:29:30.090Z,5.60
2023-02-04T17:31:58.127Z,4.13
2023-02-04T17:34:26.397Z,4.40
2023-02-04T17:36:54.503Z,4.60
2023-02-04T17:39:22.566Z,4.17
2023-02-04T17:41:50.656Z,4.47
2023-02-04T17:44:20.128Z,3.93
2023-02-04T17:46:49.656Z,4.50
2023-02-04T17:49:17.691Z,4.93
2023-02-04T17:51:45.755Z,4.33
2023-02-04T17:54:13.816Z,4.30
2023-02-04T17:56:41.919Z,4.00
2023-02-04T17:59:11.031Z,4.10
2023-02-04T18:01:39.287Z,4.80
2023-02-04T18:04:12.045Z,4.60
2023-02-04T18:06:40.135Z,4.57
2023-02-04T18:09:13.148Z,3.87
2023-02-04T18:11:41.499Z,4.63
2023-02-04T18:14:14.312Z,4.23
2023-02-04T18:16:42.396Z,4.90
2023-02-04T18:19:20.872Z,4.60
2023-02-04T18:21:49.095Z,4.37
2023-02-04T18:24:19.380Z,5.10
2023-02-04T18:26:48.343Z,4.23
2023-02-04T18:29:34.034Z,4.73
2023-02-04T18:32:03.062Z,5.20
2023-02-04T18:34:35.301Z,4.00
2023-02-04T18:37:21.096Z,4.23
2023-02-04T18:39:49.136Z,5.20
2023-02-04T18:42:20.588Z,4.80
2023-02-04T18:44:48.842Z,4.37
2023-02-04T18:47:29.527Z,4.53
2023-02-04T18:50:00.131Z,5.30
2023-02-04T18:52:28.693Z,4.90
2023-02-04T18:54:57.082Z,3.77
2023-02-04T18:57:35.433Z,4.30
2023-02-04T19:00:34.617Z,4.83
2023-02-04T19:03:10.600Z,4.47
2023-02-04T19:05:44.378Z,5.60
2023-02-04T19:08:23.627Z,4.73
2023-02-04T19:10:52.143Z,4.73
2023-02-04T19:13:21.595Z,4.50
2023-02-04T19:16:01.440Z,4.50
2023-02-04T19:18:37.512Z,4.43
2023-02-04T19:21:25.816Z,4.00
2023-02-04T19:23:56.473Z,4.80
2023-02-04T19:26:29.742Z,4.40
2023-02-04T19:28:57.858Z,4.70
2023-02-04T19:31:27.335Z,4.97
2023-02-04T19:33:55.418Z,4.63
2023-02-04T19:36:34.046Z,4.70
2023-02-04T19:39:02.672Z,4.23
2023-02-04T19:41:35.033Z,4.60
2023-02-04T19:44:35.971Z,5.70
2023-02-04T19:47:21.522Z,4.33
2023-02-04T19:49:49.605Z,4.53
2023-02-04T19:52:34.829Z,5.10
2023-02-04T19:55:36.018Z,4.57
2023-02-04T19:58:12.482Z,5.10
2023-02-04T20:00:46.727Z,4.80
2023-02-04T20:03:27.746Z,5.00
2023-02-04T20:05:56.200Z,4.77
2023-02-04T20:08:47.120Z,4.53
2023-02-04T20:11:41.800Z,4.47
2023-02-04T20:14:25.903Z,4.53
2023-02-04T20:16:54.626Z,5.70
2023-02-04T20:19:28.519Z,4.10
2023-02-04T20:22:33.268Z,4.10
2023-02-04T20:25:24.022Z,4.60
2023-02-04T20:27:55.330Z,4.53
2023-02-04T20:30:24.869Z,4.37
2023-02-04T20:32:54.654Z,4.30
2023-02-04T20:35:52.474Z,4.60
2023-02-04T20:38:20.567Z,4.10
2023-02-04T20:40:49.968Z,5.03
2023-02-04T20:43:19.334Z,4.37
2023-02-04T20:45:48.683Z,5.20
2023-02-04T20:48:28.600Z,4.70
2023-02-04T20:50:56.953Z,4.97
2023-02-04T20:53:26.089Z,4.47
2023-02-04T20:56:03.465Z,4.47
2023-02-04T20:58:35.758Z,4.40
2023-02-04T21:01:03.833Z,4.40
2023-02-04T21:03:35.186Z,5.03
2023-02-04T21:06:03.781Z,4.70
2023-02-04T21:08:35.560Z,4.23
2023-02-04T21:11:04.996Z,4.77
2023-02-04T21:13:33.088Z,5.20
2023-02-04T21:16:01.168Z,5.17
2023-02-04T21:18:29.679Z,4.67
2023-02-04T21:20:57.825Z,5.03
2023-02-04T21:23:25.952Z,4.37
2023-02-04T21:25:54.004Z,4.70
2023-02-04T21:28:23.422Z,4.47
2023-02-04T21:30:51.563Z,4.50
2023-02-04T21:33:19.665Z,4.83
2023-02-04T21:35:47.694Z,4.63
2023-02-04T21:38:15.739Z,5.10
2023-02-04T21:40:43.806Z,3.97
2023-02-04T21:43:11.909Z,5.07
2023-02-04T21:45:41.341Z,4.77
2023-02-04T21:48:09.384Z,5.00
2023-02-04T21:50:38.421Z,4.30
2023-02-04T21:53:06.988Z,4.03
2023-02-04T21:55:35.427Z,5.20
2023-02-04T21:58:03.627Z,4.93
2023-02-04T22:00:33.125Z,4.83
2023-02-04T22:03:02.556Z,5.07
2023-02-04T22:05:30.963Z,4.00
2023-02-04T22:08:03.151Z,4.93
2023-02-04T22:10:31.227Z,4.97
2023-02-04T22:12:59.305Z,5.00
2023-02-04T22:15:28.756Z,5.30
2023-02-04T22:17:56.939Z,5.30
2023-02-04T22:20:26.413Z,5.77
2023-02-04T22:22:57.174Z,5.47
2023-02-04T22:25:25.208Z,5.23
2023-02-04T22:27:53.304Z,5.23
2023-02-04T22:30:21.507Z,5.60
2023-02-04T22:32:49.548Z,4.47
2023-02-04T22:35:17.728Z,4.83
2023-02-04T22:37:47.337Z,5.10
2023-02-04T22:40:15.426Z,5.00
2023-02-04T22:42:43.525Z,4.80
2023-02-04T22:45:11.638Z,5.30
2023-02-04T22:47:39.842Z,4.70
2023-02-04T22:50:08.660Z,5.70
2023-02-04T22:52:36.772Z,5.63
2023-02-04T22:55:06.984Z,5.80
2023-02-04T22:57:35.012Z,5.50
2023-02-04T23:00:03.108Z,5.80
2023-02-04T23:02:31.149Z,5.50
2023-02-04T23:04:59.199Z,6.20
2023-02-04T23:07:27.329Z,5.93
2023-02-04T23:09:55.433Z,5.97
2023-02-04T23:12:24.847Z,5.87
2023-02-04T23:14:52.991Z,5.93
2023-02-04T23:17:21.076Z,4.90
2023-02-04T23:19:49.121Z,5.53
2023-02-04T23:22:17.224Z,5.97
2023-02-04T23:24:45.257Z,6.13
2023-02-04T23:27:13.329Z,5.80
2023-02-04T23:29:42.830Z,5.80
2023-02-04T23:32:10.993Z,5.30
2023-02-04T23:34:39.030Z,5.33
2023-02-04T23:37:07.110Z,5.63
2023-02-04T23:39:35.176Z,5.93
2023-02-04T23:42:03.254Z,6.07
2023-02-04T23:44:31.396Z,6.67
2023-02-04T23:47:00.810Z,6.30
2023-02-04T23:49:28.908Z,5.90
2023-02-04T23:51:56.975Z,6.30
2023-02-04T23:54:25.057Z,5.93
2023-02-04T23:56:53.542Z,6.17
2023-02-04T23:59:21.567Z,5.67
